.
WxDataArchive / Data Records for 2010-08-05
2010-08-04 August 2010 2010-08-06

Data Records for Thursday, 05 August 2010

Time	Temp	Chill	HIndex	Humid	Dewpt	 Wind 	HiWind	WindDir	Rain 	Barom 
-----	----	-----	------	-----	-----	------	------	-------	-----	----- 
00:00	73.2	73.2	73.2	94	71.4	0	0	---	0.00	29.819 
00:05	73.2	73.2	73.2	94	71.4	0	0	---	0.00	29.819 
00:10	73.2	73.2	73.2	94	71.4	0	0	---	0.00	29.819 
00:15	73.2	73.2	73.2	94	71.4	0	0	---	0.00	29.814 
00:20	73.2	73.2	73.2	94	71.4	0	0	---	0.00	29.814 
00:25	73.2	73.2	73.2	94	71.4	0	0	---	0.00	29.814 
00:30	73.2	73.2	73.2	94	71.4	0	1	270	0.00	29.808 
00:35	73.0	73.0	73.0	95	71.5	0	0	---	0.00	29.808 
00:40	73.0	73.0	73.0	95	71.5	0	0	---	0.00	29.808 
00:45	73.0	73.0	73.0	95	71.5	0	1	270	0.00	29.806 
00:50	73.0	73.0	73.0	95	71.5	0	1	270	0.00	29.806 
00:55	72.8	72.8	72.8	95	71.3	0	1	270	0.00	29.806 
01:00	72.8	72.8	72.8	95	71.3	0	1	270	0.00	29.803 
01:05	72.8	72.8	72.8	95	71.3	0	1	270	0.00	29.803 
01:10	72.7	72.7	72.7	95	71.2	0	1	270	0.00	29.803 
01:15	72.7	72.7	72.7	95	71.2	0	1	270	0.00	29.803 
01:20	72.7	72.7	72.7	95	71.2	0	1	270	0.00	29.803 
01:25	72.5	72.5	72.5	94	70.7	0	1	270	0.01	29.803 
01:30	72.5	72.5	72.5	94	70.7	0	2	270	0.00	29.801 
01:35	72.3	72.3	72.3	94	70.5	0	2	270	0.00	29.801 
01:40	72.3	72.3	72.3	94	70.5	0	2	270	0.00	29.801 
01:45	72.3	72.3	72.3	94	70.5	0	1	270	0.00	29.795 
01:50	72.3	72.3	72.3	94	70.5	0	1	270	0.00	29.795 
01:55	72.3	72.3	72.3	94	70.5	0	1	270	0.00	29.795 
02:00	72.3	72.3	72.3	94	70.5	0	2	270	0.00	29.792 
02:05	72.3	72.3	72.3	94	70.5	0	1	270	0.00	29.792 
02:10	72.3	72.3	72.3	94	70.5	0	1	270	0.00	29.792 
02:15	72.3	72.3	72.3	94	70.5	0	1	270	0.00	29.788 
02:20	72.3	72.3	72.3	94	70.5	0	1	270	0.00	29.788 
02:25	72.1	72.1	72.1	94	70.3	0	0	---	0.00	29.788 
02:30	72.1	72.1	72.1	94	70.3	0	0	---	0.00	29.789 
02:35	72.1	72.1	72.1	94	70.3	0	1	270	0.00	29.789 
02:40	72.1	72.1	72.1	94	70.3	0	1	270	0.00	29.789 
02:45	72.1	72.1	72.1	94	70.3	0	1	270	0.00	29.789 
02:50	72.1	72.1	72.1	94	70.3	0	1	270	0.00	29.789 
02:55	72.1	72.1	72.1	94	70.3	0	1	270	0.00	29.789 
03:00	72.1	72.1	72.1	95	70.6	0	2	270	0.00	29.787 
03:05	72.1	72.1	72.1	95	70.6	0	1	292	0.00	29.787 
03:10	72.3	72.3	72.3	95	70.8	0	1	292	0.00	29.787 
03:15	72.3	72.3	72.3	95	70.8	0	1	292	0.00	29.790 
03:20	72.3	72.3	72.3	95	70.8	0	1	292	0.00	29.790 
03:25	72.3	72.3	72.3	95	70.8	0	0	---	0.00	29.790 
03:30	72.3	72.3	72.3	95	70.8	0	0	---	0.00	29.797 
03:35	72.5	72.5	72.5	95	71.0	0	1	292	0.00	29.797 
03:40	72.5	72.5	72.5	95	71.0	0	0	---	0.00	29.797 
03:45	72.5	72.5	72.5	95	71.0	0	0	---	0.00	29.796 
03:50	72.5	72.5	72.5	95	71.0	0	0	---	0.00	29.796 
03:55	72.5	72.5	72.5	95	71.0	0	0	---	0.00	29.796 
04:00	72.5	72.5	72.5	95	71.0	0	0	---	0.00	29.797 
04:05	72.5	72.5	72.5	95	71.0	0	0	---	0.00	29.797 
04:10	72.5	72.5	72.5	95	71.0	0	0	---	0.00	29.797 
04:15	72.5	72.5	72.5	95	71.0	0	0	---	0.00	29.789 
04:20	72.5	72.5	72.5	95	71.0	0	0	---	0.00	29.789 
04:25	72.3	72.3	72.3	95	70.8	0	0	---	0.00	29.789 
04:30	72.3	72.3	72.3	95	70.8	0	0	---	0.00	29.788 
04:35	72.3	72.3	72.3	95	70.8	0	0	---	0.00	29.788 
04:40	72.3	72.3	72.3	95	70.8	0	0	---	0.00	29.788 
04:45	72.1	72.1	72.1	95	70.6	0	0	---	0.00	29.786 
04:50	72.1	72.1	72.1	95	70.6	0	0	---	0.00	29.786 
04:55	72.1	72.1	72.1	95	70.6	0	0	---	0.00	29.786 
05:00	72.0	72.0	72.0	95	70.5	0	0	---	0.00	29.783 
05:05	72.0	72.0	72.0	95	70.5	0	0	---	0.00	29.783 
05:10	71.8	71.8	71.8	95	70.3	0	0	---	0.00	29.783 
05:15	71.8	71.8	71.8	95	70.3	0	0	---	0.00	29.783 
05:20	71.6	71.6	71.6	95	70.1	0	0	---	0.00	29.783 
05:25	71.5	71.5	71.5	95	70.0	0	0	---	0.00	29.783 
05:30	71.3	71.3	71.3	95	69.8	0	0	---	0.00	29.785 
05:35	71.3	71.3	71.3	95	69.8	0	0	---	0.00	29.785 
05:40	71.1	71.1	71.1	95	69.6	0	0	---	0.00	29.785 
05:45	71.1	71.1	71.1	96	69.9	0	0	---	0.00	29.783 
05:50	71.1	71.1	71.1	96	69.9	0	1	292	0.00	29.783 
05:55	71.1	71.1	71.1	96	69.9	0	0	---	0.00	29.783 
06:00	71.1	71.1	71.1	96	69.9	0	1	292	0.00	29.785 
06:05	70.9	70.9	70.9	96	69.7	0	1	292	0.00	29.785 
06:10	70.8	70.8	70.8	96	69.6	0	1	292	0.00	29.785 
06:15	70.8	70.8	70.8	96	69.6	0	1	292	0.00	29.785 
06:20	70.6	70.6	70.6	96	69.4	0	0	---	0.00	29.785 
06:25	70.4	70.4	70.4	96	69.2	0	0	---	0.00	29.785 
06:30	70.3	70.3	70.3	96	69.1	0	0	---	0.00	29.796 
06:35	70.1	70.1	70.1	96	68.9	0	0	---	0.00	29.796 
06:40	69.9	69.9	69.9	96	68.7	0	0	---	0.00	29.796 
06:45	69.9	69.9	69.9	96	68.7	0	0	---	0.00	29.799 
06:50	69.8	69.8	69.8	96	68.6	0	0	---	0.00	29.799 
06:55	69.8	69.8	69.8	96	68.6	0	0	---	0.00	29.799 
07:00	69.8	69.8	69.8	96	68.6	0	0	---	0.00	29.801 
07:05	69.6	69.6	69.6	96	68.4	0	0	---	0.00	29.801 
07:10	69.6	69.6	69.6	96	68.4	0	0	---	0.00	29.801 
07:15	69.6	69.6	69.6	96	68.4	0	1	292	0.00	29.811 
07:20	69.6	69.6	69.6	96	68.4	0	0	---	0.00	29.811 
07:25	69.6	69.6	69.6	96	68.4	0	0	---	0.00	29.811 
07:30	69.6	69.6	69.6	96	68.4	0	0	---	0.00	29.812 
07:35	69.8	69.8	69.8	96	68.6	0	1	292	0.00	29.812 
07:40	69.8	69.8	69.8	96	68.6	0	0	---	0.00	29.812 
07:45	69.9	69.9	69.9	96	68.7	0	0	---	0.00	29.816 
07:50	70.1	70.1	70.1	96	68.9	0	1	292	0.00	29.816 
07:55	70.3	70.3	70.3	96	69.1	0	1	292	0.00	29.816 
08:00	70.4	70.4	70.4	96	69.2	0	1	292	0.00	29.816 
08:05	70.8	70.8	70.8	96	69.6	0	1	292	0.00	29.816 
08:10	70.9	70.9	70.9	96	69.7	0	1	292	0.00	29.816 
08:15	71.1	71.1	71.1	96	69.9	0	1	292	0.00	29.821 
08:20	71.3	71.3	71.3	96	70.1	0	2	292	0.00	29.821 
08:25	71.5	71.5	71.5	96	70.3	1	2	292	0.00	29.821 
08:30	71.8	71.8	71.8	95	70.3	0	1	292	0.00	29.818 
08:35	72.0	72.0	72.0	95	70.5	0	2	292	0.00	29.818 
08:40	72.1	72.1	72.1	95	70.6	0	1	292	0.00	29.818 
08:45	72.5	72.5	72.5	94	70.7	0	2	292	0.00	29.818 
08:50	72.8	72.8	72.8	94	71.0	0	2	292	0.00	29.818 
08:55	73.0	73.0	73.0	93	70.8	1	3	292	0.00	29.818 
09:00	73.3	73.3	73.3	92	70.8	0	1	292	0.00	29.820 
09:05	73.7	73.7	73.7	91	70.9	1	3	292	0.00	29.820 
09:10	74.0	74.0	74.0	89	70.5	1	3	292	0.00	29.820 
09:15	74.6	74.6	74.6	89	71.1	1	3	292	0.00	29.821 
09:20	75.1	75.1	74.6	88	71.3	0	2	292	0.00	29.821 
09:25	75.3	75.3	75.4	85	70.5	1	3	292	0.00	29.821 
09:30	75.4	75.4	75.7	84	70.2	2	3	292	0.00	29.819 
09:35	75.8	75.8	76.4	83	70.3	1	4	292	0.00	29.819 
09:40	76.1	76.1	77.0	82	70.2	1	4	292	0.00	29.819 
09:45	76.7	76.7	78.0	81	70.4	1	2	292	0.00	29.818 
09:50	77.0	77.0	78.6	80	70.3	1	3	292	0.00	29.818 
09:55	77.4	77.4	79.3	77	69.6	2	4	292	0.00	29.818 
10:00	77.6	77.6	79.6	76	69.4	2	4	292	0.00	29.815 
10:05	78.1	78.1	80.4	77	70.3	1	2	270	0.00	29.815 
10:10	78.6	78.6	81.2	76	70.4	0	2	270	0.00	29.815 
10:15	79.2	79.2	82.1	75	70.6	1	3	270	0.00	29.810 
10:20	79.4	79.4	82.3	73	70.0	2	6	270	0.00	29.810 
10:25	79.6	79.6	82.5	72	69.8	2	4	292	0.00	29.810 
10:30	79.6	79.6	82.4	71	69.3	1	3	292	0.00	29.814 
10:35	79.9	79.9	83.0	72	70.0	2	4	292	0.00	29.814 
10:40	80.1	80.1	83.2	71	69.8	1	4	315	0.00	29.814 
10:45	80.3	80.3	83.4	70	69.6	2	4	315	0.00	29.817 
10:50	80.5	80.5	83.6	69	69.4	2	4	292	0.00	29.817 
10:55	80.9	80.9	84.3	69	69.8	1	4	292	0.00	29.817 
11:00	81.4	81.4	85.0	68	69.8	2	3	292	0.00	29.815 
11:05	81.6	81.6	85.1	67	69.6	2	4	292	0.00	29.815 
11:10	81.8	81.8	85.5	67	69.7	1	4	292	0.00	29.815 
11:15	82.2	82.2	85.9	66	69.7	1	4	292	0.00	29.816 
11:20	82.4	82.4	86.7	68	70.8	1	3	292	0.00	29.816 
11:25	82.6	82.6	86.4	65	69.6	1	3	292	0.00	29.816 
11:30	82.6	82.6	85.9	63	68.7	2	4	292	0.00	29.816 
11:35	82.8	82.8	86.3	63	68.9	2	5	292	0.00	29.816 
11:40	83.0	83.0	86.4	62	68.6	2	4	292	0.00	29.816 
11:45	83.2	83.2	86.2	60	67.8	2	5	292	0.00	29.821 
11:50	83.4	83.4	86.5	60	68.0	2	5	270	0.00	29.821 
11:55	83.6	83.6	87.1	61	68.7	1	3	315	0.00	29.821 
12:00	83.8	83.8	86.9	59	67.9	1	3	315	0.00	29.818 
12:05	84.1	84.1	87.2	58	67.7	2	4	338	0.00	29.818 
12:10	84.1	84.1	86.7	56	66.7	2	5	270	0.00	29.818 
12:15	84.3	84.3	87.0	56	66.9	2	5	270	0.00	29.815 
12:20	84.3	84.3	87.0	56	66.9	2	5	292	0.00	29.815 
12:25	84.5	84.5	87.0	55	66.5	2	5	270	0.00	29.815 
12:30	84.9	84.9	87.6	55	66.9	2	3	270	0.00	29.813 
12:35	85.3	85.3	88.2	55	67.3	1	5	270	0.00	29.813 
12:40	85.1	85.1	86.9	51	64.9	3	5	270	0.00	29.813 
12:45	85.1	85.1	86.4	49	63.8	3	7	270	0.00	29.813 
12:50	85.1	85.1	87.1	52	65.5	3	9	270	0.00	29.813 
12:55	85.3	85.3	87.1	51	65.1	3	6	270	0.00	29.813 
13:00	85.1	85.1	86.4	49	63.8	4	7	270	0.00	29.812 
13:05	85.1	85.1	86.4	49	63.8	4	7	270	0.00	29.812 
13:10	84.9	84.9	87.1	53	65.8	2	4	315	0.00	29.812 
13:15	84.9	84.9	86.3	50	64.2	3	7	270	0.00	29.807 
13:20	84.9	84.9	86.3	50	64.2	2	5	315	0.00	29.807 
13:25	85.1	85.1	86.9	51	64.9	2	6	315	0.00	29.807 
13:30	85.5	85.5	87.4	51	65.3	2	6	292	0.00	29.804 
13:35	85.5	85.5	86.9	49	64.1	2	4	292	0.00	29.804 
13:40	85.7	85.7	86.9	48	63.7	3	9	292	0.00	29.804 
13:45	85.7	85.7	86.7	47	63.1	2	5	315	0.00	29.798 
13:50	85.3	85.3	86.9	50	64.5	2	4	315	0.00	29.798 
13:55	85.7	85.7	86.9	48	63.7	3	7	270	0.00	29.798 
14:00	85.9	85.9	87.5	49	64.5	2	5	270	0.00	29.788 
14:05	86.1	86.1	87.0	46	62.9	2	5	315	0.00	29.788 
14:10	86.1	86.1	87.0	46	62.9	3	6	270	0.00	29.788 
14:15	85.9	85.9	86.2	44	61.4	4	7	270	0.00	29.784 
14:20	86.1	86.1	87.2	47	63.5	2	5	292	0.00	29.784 
14:25	86.5	86.5	87.8	47	63.8	2	4	270	0.00	29.784 
14:30	87.0	87.0	87.6	44	62.4	1	3	292	0.00	29.781 
14:35	86.5	86.5	87.5	46	63.2	3	5	270	0.00	29.781 
14:40	86.3	86.3	87.0	45	62.4	3	5	270	0.00	29.781 
14:45	86.3	86.3	87.0	45	62.4	3	6	338	0.00	29.775 
14:50	86.3	86.3	87.2	46	63.0	3	7	270	0.00	29.775 
14:55	85.9	85.9	86.7	46	62.7	3	10	315	0.00	29.775 
15:00	85.9	85.9	87.7	50	65.1	2	4	292	0.00	29.766 
15:05	86.5	86.5	87.5	46	63.2	4	9	270	0.00	29.766 
15:10	87.0	87.0	87.9	45	63.1	2	5	292	0.00	29.766 
15:15	87.2	87.2	88.5	46	63.9	3	7	270	0.00	29.764 
15:20	87.2	87.2	88.8	47	64.5	3	6	292	0.00	29.764 
15:25	86.5	86.5	87.8	47	63.8	2	4	292	0.00	29.764 
15:30	86.3	86.3	88.0	49	64.9	2	5	292	0.00	29.764 
15:35	86.3	86.3	88.0	49	64.9	2	5	270	0.00	29.764 
15:40	86.1	86.1	87.8	49	64.7	3	5	292	0.00	29.764 
15:45	85.9	85.9	87.7	50	65.1	2	6	270	0.00	29.752 
15:50	86.3	86.3	88.0	49	64.9	2	5	270	0.00	29.752 
15:55	86.1	86.1	88.0	50	65.3	2	5	270	0.00	29.752 
16:00	86.3	86.3	88.0	49	64.9	3	6	270	0.00	29.752 
16:05	87.0	87.0	88.8	48	64.9	3	6	270	0.00	29.752 
16:10	86.7	86.7	88.1	47	64.0	3	6	270	0.00	29.752 
16:15	86.1	86.1	88.0	50	65.3	2	6	270	0.00	29.749 
16:20	86.3	86.3	88.0	49	64.9	4	7	270	0.00	29.749 
16:25	86.3	86.3	88.0	49	64.9	3	9	270	0.00	29.749 
16:30	86.5	86.5	88.1	48	64.4	3	6	270	0.00	29.742 
16:35	86.3	86.3	87.5	47	63.7	3	7	270	0.00	29.742 
16:40	85.7	85.7	87.2	49	64.3	3	5	270	0.00	29.742 
16:45	85.1	85.1	86.6	50	64.3	3	5	270	0.00	29.740 
16:50	84.5	84.5	85.8	50	63.8	2	6	292	0.00	29.740 
16:55	84.1	84.1	85.5	51	64.0	2	5	292	0.00	29.740 
17:00	83.8	83.8	85.5	53	64.8	1	4	315	0.00	29.741 
17:05	83.6	83.6	85.5	54	65.2	3	6	270	0.00	29.741 
17:10	83.2	83.2	84.9	54	64.8	2	4	315	0.00	29.741 
17:15	81.6	81.6	84.2	62	67.3	1	4	338	0.00	29.750 
17:20	80.9	80.9	83.5	64	67.6	1	3	338	0.00	29.750 
17:25	81.1	81.1	83.6	63	67.3	2	9	338	0.00	29.750 
17:30	81.1	81.1	83.6	63	67.3	2	5	292	0.00	29.747 
17:35	80.9	80.9	83.5	64	67.6	3	10	270	0.00	29.747 
17:40	80.5	80.5	83.1	65	67.6	4	7	270	0.00	29.747 
17:45	80.7	80.7	83.2	64	67.4	2	5	270	0.00	29.748 
17:50	80.7	80.7	83.1	63	66.9	2	6	270	0.00	29.748 
17:55	81.1	81.1	83.2	60	65.9	3	6	270	0.00	29.748 
18:00	81.2	81.2	83.2	59	65.5	3	7	338	0.00	29.751 
18:05	80.9	80.9	82.9	60	65.7	2	6	292	0.00	29.751 
18:10	80.3	80.3	82.4	62	66.1	2	5	292	0.00	29.751 
18:15	80.3	80.3	82.7	64	67.0	1	3	315	0.00	29.756 
18:20	80.5	80.5	82.9	64	67.2	2	6	338	0.00	29.756 
18:25	80.5	80.5	83.1	65	67.6	1	3	292	0.00	29.756 
18:30	80.3	80.3	82.8	65	67.4	1	5	292	0.00	29.763 
18:35	80.3	80.3	82.9	66	67.9	1	4	292	0.00	29.763 
18:40	80.3	80.3	82.8	65	67.4	1	4	292	0.00	29.763 
18:45	80.3	80.3	82.8	65	67.4	1	3	292	0.00	29.768 
18:50	80.3	80.3	82.7	64	67.0	1	4	292	0.00	29.768 
18:55	80.1	80.1	82.3	63	66.3	1	3	292	0.00	29.768 
19:00	79.9	79.9	81.9	62	65.7	1	4	315	0.00	29.772 
19:05	79.6	79.6	81.5	62	65.4	1	3	292	0.00	29.772 
19:10	79.6	79.6	81.4	61	64.9	1	3	292	0.00	29.772 
19:15	79.8	79.8	81.6	60	64.7	1	4	292	0.00	29.773 
19:20	79.8	79.8	81.5	59	64.2	1	2	292	0.00	29.773 
19:25	79.6	79.6	81.2	58	63.5	1	4	292	0.00	29.773 
19:30	79.6	79.6	80.9	55	62.0	1	6	315	0.00	29.775 
19:35	79.6	79.6	81.0	56	62.5	0	3	270	0.00	29.775 
19:40	79.2	79.2	80.4	54	61.1	1	4	270	0.00	29.775 
19:45	78.8	78.8	80.0	53	60.2	1	4	270	0.00	29.776 
19:50	78.8	78.8	79.9	52	59.7	1	3	292	0.00	29.776 
19:55	78.6	78.6	79.7	51	58.9	0	2	292	0.00	29.776 
20:00	78.5	78.5	79.7	52	59.4	0	2	292	0.00	29.779 
20:05	78.3	78.3	79.6	53	59.7	0	2	292	0.00	29.779 
20:10	78.1	78.1	79.5	54	60.1	0	1	292	0.00	29.779 
20:15	77.7	77.7	79.2	54	59.7	0	2	292	0.00	29.783 
20:20	77.6	77.6	79.1	53	59.1	1	3	292	0.00	29.783 
20:25	77.4	77.4	79.0	54	59.4	0	1	292	0.00	29.783 
20:30	77.2	77.2	78.8	54	59.2	0	0	---	0.00	29.788 
20:35	76.8	76.8	78.6	55	59.4	0	1	292	0.00	29.788 
20:40	76.5	76.5	78.4	56	59.6	0	1	292	0.00	29.788 
20:45	76.3	76.3	78.3	57	59.9	0	2	292	0.00	29.788 
20:50	76.0	76.0	78.1	57	59.6	0	1	292	0.00	29.788 
20:55	75.8	75.8	77.9	57	59.5	0	1	292	0.00	29.788 
21:00	75.4	75.4	77.7	58	59.6	0	1	292	0.00	29.791 
21:05	75.3	75.3	77.6	58	59.5	0	1	292	0.00	29.791 
21:10	75.1	75.1	77.5	58	59.3	0	1	292	0.00	29.791 
21:15	74.9	74.9	74.9	59	59.6	0	0	---	0.00	29.794 
21:20	74.6	74.6	74.6	59	59.3	0	0	---	0.00	29.794 
21:25	74.6	74.6	74.6	60	59.8	0	3	292	0.00	29.794 
21:30	74.4	74.4	74.4	60	59.6	0	0	---	0.00	29.798 
21:35	74.2	74.2	74.2	61	59.9	0	1	292	0.00	29.798 
21:40	74.0	74.0	74.0	62	60.1	0	1	292	0.00	29.798 
21:45	73.7	73.7	73.7	62	59.9	0	0	---	0.00	29.805 
21:50	73.5	73.5	73.5	63	60.1	0	0	---	0.00	29.805 
21:55	73.2	73.2	73.2	63	59.8	0	0	---	0.00	29.805 
22:00	72.8	72.8	72.8	64	59.9	0	0	---	0.00	29.817 
22:05	72.5	72.5	72.5	65	60.0	0	0	---	0.00	29.817 
22:10	72.0	72.0	72.0	66	60.0	0	0	---	0.00	29.817 
22:15	71.6	71.6	71.6	66	59.6	0	0	---	0.00	29.818 
22:20	71.3	71.3	71.3	67	59.8	0	0	---	0.00	29.818 
22:25	71.1	71.1	71.1	67	59.6	0	0	---	0.00	29.818 
22:30	70.8	70.8	70.8	68	59.7	0	0	---	0.00	29.822 
22:35	70.4	70.4	70.4	69	59.7	0	0	---	0.00	29.822 
22:40	70.1	70.1	70.1	70	59.8	0	0	---	0.00	29.822 
22:45	69.8	69.8	69.8	71	60.0	0	0	---	0.00	29.831 
22:50	69.6	69.6	69.6	72	60.2	0	0	---	0.00	29.831 
22:55	69.3	69.3	69.3	73	60.3	0	0	---	0.00	29.831 
23:00	69.1	69.1	69.1	73	60.1	0	0	---	0.00	29.832 
23:05	68.9	68.9	68.9	74	60.3	0	0	---	0.00	29.832 
23:10	68.8	68.8	68.8	74	60.2	0	0	---	0.00	29.832 
23:15	68.4	68.4	68.4	74	59.8	0	0	---	0.00	29.834 
23:20	68.3	68.3	68.3	75	60.1	0	0	---	0.00	29.834 
23:25	68.1	68.1	68.1	76	60.2	0	0	---	0.00	29.834 
23:30	67.9	67.9	67.9	77	60.4	0	0	---	0.00	29.834 
23:35	67.9	67.9	67.9	77	60.4	0	0	---	0.00	29.834 
23:40	67.8	67.8	67.8	78	60.7	0	0	---	0.00	29.834 
23:45	67.6	67.6	67.6	78	60.5	0	0	---	0.00	29.837 
23:50	67.4	67.4	67.4	78	60.3	0	0	---	0.00	29.837 
23:55	67.3	67.3	67.3	78	60.2	0	0	---	0.00	29.837 

CoCoRaHS
IN-AL-39
A2 Web Hosting
Creative Commons License
GoDaddy
search engine by freefind advanced

loaded 2018-11-17 18:25:42 • last modified 2010-11-18 10:43:29
Privacy PolicyDisclaimer
• wx.awcolley.com is powered by PmWiki v.2002016 •
• all content (unless otherwise noted) © 2018 A W Colley